Time;durP1;ratioP1;P1;durP2;ratioP2;P2;SDS_P1;SDS_P2;PMS_P1;PMS_P2;Temp;Humidity;BMP_temperature;BMP_pressure;BME280_temperature;BME280_humidity;BME280_pressure;Samples;Min_cycle;Max_cycle;Signal;HPM_P1;HPM_P2
2023/04/01 00:01:50;;;;;;;3.45;0.40;;;;;;;;;;5323446;28;20016;-67
2023/04/01 00:04:22;;;;;;;3.33;0.60;;;;;;;;;;5323209;28;20039;-69
2023/04/01 00:06:53;;;;;;;3.28;0.50;;;;;;;;;;5323426;28;20044;-68
2023/04/01 00:09:24;;;;;;;3.92;0.50;;;;;;;;;;5323958;28;20434;-68
2023/04/01 00:11:55;;;;;;;3.10;0.30;;;;;;;;;;5322738;28;20027;-68
2023/04/01 00:14:27;;;;;;;2.65;0.63;;;;;;;;;;5324169;28;20414;-66
2023/04/01 00:16:58;;;;;;;1.90;0.30;;;;;;;;;;5323484;28;20027;-68
2023/04/01 00:19:29;;;;;;;3.72;0.85;;;;;;;;;;5322967;28;20038;-67
2023/04/01 00:22:00;;;;;;;2.00;0.30;;;;;;;;;;5323549;28;20039;-68
2023/04/01 00:24:31;;;;;;;2.83;0.40;;;;;;;;;;5323839;28;20028;-68
2023/04/01 00:27:03;;;;;;;1.98;0.40;;;;;;;;;;5322845;28;20015;-68
2023/04/01 00:29:34;;;;;;;2.67;0.30;;;;;;;;;;5323609;28;20016;-68
2023/04/01 00:32:05;;;;;;;2.63;0.40;;;;;;;;;;5323397;28;20030;-68
2023/04/01 00:34:37;;;;;;;2.40;0.40;;;;;;;;;;5322734;28;20462;-68
2023/04/01 00:37:09;;;;;;;2.95;0.35;;;;;;;;;;5323900;28;20016;-68
2023/04/01 00:39:40;;;;;;;2.50;0.40;;;;;;;;;;5324162;28;20026;-68
2023/04/01 00:42:12;;;;;;;3.85;0.40;;;;;;;;;;5327949;28;20023;-67
2023/04/01 00:44:45;;;;;;;3.13;0.30;;;;;;;;;;5327074;28;20016;-68
2023/04/01 00:47:16;;;;;;;1.67;0.40;;;;;;;;;;5327202;28;20024;-69
2023/04/01 00:49:49;;;;;;;1.92;0.40;;;;;;;;;;5327066;28;20064;-67
2023/04/01 00:52:22;;;;;;;2.72;0.65;;;;;;;;;;5327404;28;20527;-68
2023/04/01 00:54:56;;;;;;;2.80;0.60;;;;;;;;;;5326215;28;20020;-68
2023/04/01 00:57:37;;;;;;;1.45;0.30;;;;;;;;;;5327498;28;20011;-67
2023/04/01 01:00:10;;;;;;;1.65;0.30;;;;;;;;;;5327282;28;20028;-68
2023/04/01 01:02:44;;;;;;;2.03;0.38;;;;;;;;;;5326086;28;20064;-68
2023/04/01 01:05:15;;;;;;;2.47;0.40;;;;;;;;;;5327352;28;20022;-67
2023/04/01 01:07:47;;;;;;;1.95;0.57;;;;;;;;;;5325955;28;20083;-67
2023/04/01 01:10:18;;;;;;;1.40;0.40;;;;;;;;;;5327217;28;20425;-67
2023/04/01 01:13:05;;;;;;;1.98;0.40;;;;;;;;;;5326675;28;20647;-68
2023/04/01 01:15:37;;;;;;;1.73;0.30;;;;;;;;;;5326132;28;20016;-68
2023/04/01 01:18:18;;;;;;;1.83;0.45;;;;;;;;;;5326832;28;20355;-68
2023/04/01 01:20:52;;;;;;;1.92;0.40;;;;;;;;;;5326274;28;20863;-67
2023/04/01 01:23:43;;;;;;;1.00;0.40;;;;;;;;;;5326310;28;20076;-68
2023/04/01 01:26:17;;;;;;;3.22;0.60;;;;;;;;;;5326887;28;20066;-68
2023/04/01 01:29:07;;;;;;;1.08;0.40;;;;;;;;;;5325478;28;20027;-67
2023/04/01 01:31:57;;;;;;;1.02;0.50;;;;;;;;;;5326341;28;20035;-68
2023/04/01 01:34:40;;;;;;;1.77;0.40;;;;;;;;;;5326808;28;20036;-67
2023/04/01 01:37:13;;;;;;;1.42;0.65;;;;;;;;;;5326275;28;20489;-68
2023/04/01 01:39:48;;;;;;;1.50;1.00;;;;;;;;;;5326073;28;20019;-68
2023/04/01 01:42:20;;;;;;;2.05;0.80;;;;;;;;;;5326653;28;20030;-68
2023/04/01 01:44:52;;;;;;;2.10;1.20;;;;;;;;;;5325068;28;20087;-68
2023/04/01 01:47:24;;;;;;;3.10;1.40;;;;;;;;;;5326456;28;20024;-68
2023/04/01 01:49:55;;;;;;;1.67;1.45;;;;;;;;;;5325198;28;20347;-68
2023/04/01 01:52:28;;;;;;;2.50;1.75;;;;;;;;;;5325955;28;20104;-68
2023/04/01 01:54:59;;;;;;;2.08;1.67;;;;;;;;;;5325764;28;20015;-68
2023/04/01 01:57:36;;;;;;;2.25;1.60;;;;;;;;;;5325203;28;20025;-68
2023/04/01 02:00:13;;;;;;;3.33;1.52;;;;;;;;;;5325834;28;20016;-68
2023/04/01 02:02:46;;;;;;;2.55;1.85;;;;;;;;;;5325873;28;20016;-68
2023/04/01 02:05:19;;;;;;;2.10;1.90;;;;;;;;;;5325473;28;20027;-68
2023/04/01 02:08:08;;;;;;;2.38;2.15;;;;;;;;;;5325466;28;20020;-68
2023/04/01 02:10:42;;;;;;;2.10;1.80;;;;;;;;;;5325600;28;20016;-67
2023/04/01 02:13:20;;;;;;;2.92;2.47;;;;;;;;;;5325321;28;20024;-68
2023/04/01 02:15:52;;;;;;;3.38;2.95;;;;;;;;;;5325453;28;20419;-68
2023/04/01 02:18:24;;;;;;;4.20;3.08;;;;;;;;;;5325182;28;20366;-68
2023/04/01 02:20:57;;;;;;;4.30;3.90;;;;;;;;;;5325370;28;20020;-68
2023/04/01 02:23:28;;;;;;;3.60;3.22;;;;;;;;;;5325715;28;20020;-68
2023/04/01 02:26:00;;;;;;;4.85;3.72;;;;;;;;;;5324391;28;20489;-68
2023/04/01 02:28:31;;;;;;;5.20;4.30;;;;;;;;;;5325391;28;20023;-69
2023/04/01 02:31:03;;;;;;;4.85;4.40;;;;;;;;;;5325258;28;20012;-67
2023/04/01 02:33:34;;;;;;;4.90;4.32;;;;;;;;;;5324737;28;20093;-69
2023/04/01 02:36:06;;;;;;;7.05;5.28;;;;;;;;;;5325421;28;20012;-68
2023/04/01 02:38:37;;;;;;;6.13;5.53;;;;;;;;;;5324974;28;20022;-68
2023/04/01 02:41:08;;;;;;;6.15;5.55;;;;;;;;;;5324494;28;20024;-68
2023/04/01 02:43:39;;;;;;;6.68;6.07;;;;;;;;;;5324720;28;20024;-68
2023/04/01 02:46:10;;;;;;;6.10;5.60;;;;;;;;;;5324697;28;20016;-68
2023/04/01 02:48:42;;;;;;;9.27;8.05;;;;;;;;;;5324626;28;20095;-68
2023/04/01 02:51:13;;;;;;;8.32;7.32;;;;;;;;;;5325080;28;20076;-68
2023/04/01 02:53:44;;;;;;;7.45;6.70;;;;;;;;;;5323417;28;20509;-68
2023/04/01 02:56:15;;;;;;;8.25;7.35;;;;;;;;;;5325028;28;20370;-67
2023/04/01 02:58:47;;;;;;;8.23;7.03;;;;;;;;;;5324438;28;20030;-68
2023/04/01 03:01:18;;;;;;;8.05;7.28;;;;;;;;;;5324031;28;20575;-68
2023/04/01 03:03:49;;;;;;;7.47;6.70;;;;;;;;;;5324148;28;20378;-68
2023/04/01 03:06:21;;;;;;;7.63;6.93;;;;;;;;;;5324811;28;20020;-68
2023/04/01 03:08:52;;;;;;;7.95;6.43;;;;;;;;;;5323703;28;20477;-68
2023/04/01 03:11:23;;;;;;;9.00;7.30;;;;;;;;;;5324874;28;20023;-68
2023/04/01 03:13:54;;;;;;;6.53;5.93;;;;;;;;;;5324016;28;20038;-68
2023/04/01 03:16:25;;;;;;;7.35;6.55;;;;;;;;;;5324111;28;20378;-68
2023/04/01 03:18:59;;;;;;;7.13;6.45;;;;;;;;;;5324067;28;20077;-68
2023/04/01 03:21:30;;;;;;;7.55;6.57;;;;;;;;;;5323868;28;20481;-68
2023/04/01 03:24:01;;;;;;;7.32;6.15;;;;;;;;;;5324440;28;20028;-68
2023/04/01 03:26:33;;;;;;;7.28;5.40;;;;;;;;;;5324309;28;20027;-68
2023/04/01 03:29:04;;;;;;;6.90;6.15;;;;;;;;;;5323344;28;20022;-68
2023/04/01 03:31:35;;;;;;;7.18;6.47;;;;;;;;;;5324111;28;20472;-68
2023/04/01 03:34:07;;;;;;;6.88;6.28;;;;;;;;;;5323987;28;20063;-68
2023/04/01 03:36:38;;;;;;;7.05;6.45;;;;;;;;;;5323152;28;20019;-68
2023/04/01 03:39:09;;;;;;;7.00;6.13;;;;;;;;;;5324410;28;20020;-68
2023/04/01 03:41:40;;;;;;;6.82;6.25;;;;;;;;;;5323683;28;20027;-68
2023/04/01 03:44:12;;;;;;;6.75;6.15;;;;;;;;;;5323557;28;20098;-68
2023/04/01 03:46:43;;;;;;;6.85;6.35;;;;;;;;;;5323845;28;20494;-68
2023/04/01 03:49:14;;;;;;;5.78;5.28;;;;;;;;;;5324323;28;20008;-68
2023/04/01 03:51:45;;;;;;;6.10;5.60;;;;;;;;;;5322936;28;20030;-69
2023/04/01 03:54:17;;;;;;;5.35;4.93;;;;;;;;;;5324189;28;20023;-69
2023/04/01 03:56:49;;;;;;;5.05;4.65;;;;;;;;;;5322957;28;20503;-69
2023/04/01 03:59:20;;;;;;;5.75;4.60;;;;;;;;;;5324131;28;20024;-69
2023/04/01 04:01:52;;;;;;;3.83;3.45;;;;;;;;;;5323546;28;20031;-69
2023/04/01 04:04:23;;;;;;;4.07;3.78;;;;;;;;;;5323386;28;20028;-69
2023/04/01 04:06:54;;;;;;;3.08;2.78;;;;;;;;;;5323385;28;20030;-69
2023/04/01 04:09:25;;;;;;;3.63;3.35;;;;;;;;;;5324221;28;20035;-69
2023/04/01 04:11:57;;;;;;;3.63;3.05;;;;;;;;;;5322501;28;20031;-69
2023/04/01 04:14:28;;;;;;;3.22;2.92;;;;;;;;;;5325569;28;20367;-69
2023/04/01 04:16:59;;;;;;;3.38;3.08;;;;;;;;;;5327788;28;20022;-69
2023/04/01 04:19:33;;;;;;;3.63;3.30;;;;;;;;;;5327203;28;20038;-69
2023/04/01 04:22:05;;;;;;;3.20;2.90;;;;;;;;;;5327770;28;20053;-69
2023/04/01 04:24:36;;;;;;;2.80;2.60;;;;;;;;;;5327120;28;20036;-68
2023/04/01 04:27:07;;;;;;;2.45;2.25;;;;;;;;;;5327815;28;20488;-69
2023/04/01 04:29:38;;;;;;;2.35;2.15;;;;;;;;;;5327381;28;20110;-69
2023/04/01 04:32:09;;;;;;;2.13;1.90;;;;;;;;;;5327422;28;20072;-69
2023/04/01 04:34:41;;;;;;;2.45;2.22;;;;;;;;;;5327305;28;20415;-68
2023/04/01 04:37:12;;;;;;;2.30;1.95;;;;;;;;;;5328143;28;20421;-69
2023/04/01 04:39:43;;;;;;;2.45;1.70;;;;;;;;;;5326590;28;20027;-68
2023/04/01 04:42:14;;;;;;;1.63;1.30;;;;;;;;;;5327731;28;20023;-68
2023/04/01 04:44:45;;;;;;;1.83;1.23;;;;;;;;;;5327352;28;20102;-68
2023/04/01 04:47:17;;;;;;;1.90;1.17;;;;;;;;;;5327012;28;20027;-68
2023/04/01 04:49:48;;;;;;;1.42;1.10;;;;;;;;;;5327038;28;20828;-68
2023/04/01 04:52:19;;;;;;;1.30;0.90;;;;;;;;;;5327359;28;20485;-68
2023/04/01 04:54:50;;;;;;;1.45;0.90;;;;;;;;;;5326197;28;20351;-68
2023/04/01 04:57:21;;;;;;;2.02;0.98;;;;;;;;;;5327670;28;20020;-68
2023/04/01 04:59:52;;;;;;;2.40;0.88;;;;;;;;;;5326426;28;20015;-68
2023/04/01 05:02:24;;;;;;;1.65;0.90;;;;;;;;;;5327558;28;20019;-68
2023/04/01 05:04:55;;;;;;;1.42;0.88;;;;;;;;;;5326864;28;20027;-68
2023/04/01 05:07:26;;;;;;;1.20;0.90;;;;;;;;;;5326581;28;20015;-68
2023/04/01 05:09:57;;;;;;;1.60;0.80;;;;;;;;;;5326601;28;20020;-68
2023/04/01 05:12:29;;;;;;;1.38;0.90;;;;;;;;;;5327135;28;20030;-69
2023/04/01 05:15:00;;;;;;;1.65;0.90;;;;;;;;;;5325859;28;20019;-69
2023/04/01 05:17:31;;;;;;;1.25;0.73;;;;;;;;;;5326918;28;20377;-69
2023/04/01 05:20:03;;;;;;;1.15;0.70;;;;;;;;;;5326610;28;20094;-69
2023/04/01 05:22:34;;;;;;;1.02;0.65;;;;;;;;;;5325990;28;20020;-69
2023/04/01 05:25:05;;;;;;;0.90;0.60;;;;;;;;;;5326016;28;20090;-69
2023/04/01 05:27:36;;;;;;;1.20;0.77;;;;;;;;;;5326410;28;20386;-69
2023/04/01 05:30:08;;;;;;;1.15;0.63;;;;;;;;;;5325675;28;20024;-69
2023/04/01 05:32:39;;;;;;;0.98;0.60;;;;;;;;;;5325926;28;20031;-69
2023/04/01 05:35:11;;;;;;;0.90;0.60;;;;;;;;;;5326118;28;20389;-69
2023/04/01 05:37:42;;;;;;;1.08;0.70;;;;;;;;;;5326156;28;20020;-69
2023/04/01 05:40:13;;;;;;;1.10;0.85;;;;;;;;;;5326764;28;20390;-69
2023/04/01 05:42:44;;;;;;;1.30;0.75;;;;;;;;;;5324991;28;20032;-68
2023/04/01 05:45:16;;;;;;;1.20;0.75;;;;;;;;;;5326458;28;20057;-68
2023/04/01 05:47:47;;;;;;;1.27;0.82;;;;;;;;;;5325834;28;20438;-69
2023/04/01 05:50:18;;;;;;;1.50;1.10;;;;;;;;;;5325780;28;20466;-69
2023/04/01 05:52:49;;;;;;;2.13;0.80;;;;;;;;;;5325423;28;20051;-68
2023/04/01 05:55:20;;;;;;;1.73;1.15;;;;;;;;;;5326201;28;20027;-67
2023/04/01 05:57:52;;;;;;;3.10;1.15;;;;;;;;;;5324769;28;20048;-68
2023/04/01 06:00:23;;;;;;;1.77;1.30;;;;;;;;;;5326191;28;20042;-69
2023/04/01 06:02:54;;;;;;;1.80;1.30;;;;;;;;;;5324718;28;20024;-70
2023/04/01 06:05:27;;;;;;;1.77;1.67;;;;;;;;;;5325638;28;20023;-69
2023/04/01 06:08:00;;;;;;;1.98;1.75;;;;;;;;;;5325460;28;20599;-69
2023/04/01 06:10:42;;;;;;;1.95;1.70;;;;;;;;;;5324805;28;20363;-69
2023/04/01 06:13:32;;;;;;;1.95;1.40;;;;;;;;;;5325661;28;20028;-68
2023/04/01 06:16:15;;;;;;;2.05;1.80;;;;;;;;;;5325471;28;20032;-68
2023/04/01 06:18:55;;;;;;;2.30;1.75;;;;;;;;;;5324685;28;20015;-69
2023/04/01 06:21:45;;;;;;;2.10;1.80;;;;;;;;;;5325763;28;20459;-68
2023/04/01 06:24:36;;;;;;;2.25;1.55;;;;;;;;;;5324655;28;20019;-69
2023/04/01 06:27:26;;;;;;;2.25;1.73;;;;;;;;;;5325415;28;20027;-69
2023/04/01 06:29:57;;;;;;;2.35;2.15;;;;;;;;;;5324777;28;20027;-69
2023/04/01 06:32:44;;;;;;;2.83;2.05;;;;;;;;;;5324633;28;20054;-69
2023/04/01 06:35:16;;;;;;;2.42;1.88;;;;;;;;;;5325702;28;20273;-68
2023/04/01 06:37:59;;;;;;;2.83;2.53;;;;;;;;;;5324146;28;20020;-69
2023/04/01 06:40:39;;;;;;;3.10;2.45;;;;;;;;;;5324331;28;20106;-69
2023/04/01 06:43:22;;;;;;;3.58;3.25;;;;;;;;;;5325258;28;20080;-69
2023/04/01 06:45:59;;;;;;;3.55;3.25;;;;;;;;;;5323923;28;20081;-69
2023/04/01 06:48:31;;;;;;;3.90;3.60;;;;;;;;;;5324887;28;20497;-69
2023/04/01 06:51:02;;;;;;;4.30;3.90;;;;;;;;;;5324366;28;20053;-68
2023/04/01 06:53:38;;;;;;;3.90;3.60;;;;;;;;;;5323305;28;20118;-69
2023/04/01 06:56:18;;;;;;;5.55;5.07;;;;;;;;;;5325134;28;20030;-68
2023/04/01 06:58:52;;;;;;;4.97;4.57;;;;;;;;;;5324265;28;20027;-68
2023/04/01 07:01:26;;;;;;;5.82;5.35;;;;;;;;;;5324055;28;20018;-69
2023/04/01 07:04:00;;;;;;;5.40;4.85;;;;;;;;;;5323975;28;20122;-69
2023/04/01 07:06:34;;;;;;;6.43;5.65;;;;;;;;;;5323941;28;20031;-68
2023/04/01 07:09:08;;;;;;;5.97;5.55;;;;;;;;;;5324414;28;20527;-68
2023/04/01 07:11:40;;;;;;;7.43;6.82;;;;;;;;;;5323947;28;20019;-68
2023/04/01 07:14:11;;;;;;;6.35;5.85;;;;;;;;;;5323977;28;20034;-68
2023/04/01 07:16:45;;;;;;;6.30;5.78;;;;;;;;;;5324247;28;20099;-69
2023/04/01 07:19:40;;;;;;;6.75;6.10;;;;;;;;;;5324692;28;20273;-68
2023/04/01 07:22:35;;;;;;;7.53;6.90;;;;;;;;;;5324024;28;20030;-68
2023/04/01 07:25:17;;;;;;;8.48;7.72;;;;;;;;;;5313346;28;20032;-68
2023/04/01 07:27:50;;;;;;;8.75;7.95;;;;;;;;;;5323210;28;20130;-68
2023/04/01 07:30:22;;;;;;;8.40;7.55;;;;;;;;;;5318754;28;20031;-68
2023/04/01 07:33:00;;;;;;;10.50;8.52;;;;;;;;;;5301253;28;20442;-68
2023/04/01 07:35:38;;;;;;;9.32;8.43;;;;;;;;;;5302180;28;20046;-67
2023/04/01 07:38:13;;;;;;;9.32;8.38;;;;;;;;;;5302743;28;20056;-68
2023/04/01 07:40:51;;;;;;;10.55;8.57;;;;;;;;;;5301771;28;20104;-68
2023/04/01 07:44:01;;;;;;;9.75;8.82;;;;;;;;;;5302248;28;20012;-68
2023/04/01 07:46:32;;;;;;;9.85;7.78;;;;;;;;;;5237103;28;20112;-69
2023/04/01 07:49:06;;;;;;;9.52;8.57;;;;;;;;;;5236455;28;20508;-69
2023/04/01 07:51:52;;;;;;;9.68;8.35;;;;;;;;;;5274327;28;20036;-69
2023/04/01 07:54:32;;;;;;;11.05;8.68;;;;;;;;;;5302474;28;20067;-68
2023/04/01 07:57:11;;;;;;;9.75;8.85;;;;;;;;;;5301767;28;20070;-68
2023/04/01 07:59:42;;;;;;;11.07;9.38;;;;;;;;;;5301039;28;20103;-68
2023/04/01 08:02:25;;;;;;;11.45;9.00;;;;;;;;;;5301577;28;20112;-69
2023/04/01 08:05:14;;;;;;;9.23;8.00;;;;;;;;;;5301786;28;20628;-69
2023/04/01 08:07:45;;;;;;;;;;;;;;;;;;5303013;28;20374;-69
2023/04/01 08:10:19;;;;;;;11.43;7.95;;;;;;;;;;5302252;28;19904;-70
2023/04/01 08:12:57;;;;;;;9.82;8.25;;;;;;;;;;5301872;28;20462;-69
2023/04/01 08:15:35;;;;;;;10.35;7.53;;;;;;;;;;5302299;28;20032;-69
2023/04/01 08:18:06;;;;;;;9.02;7.80;;;;;;;;;;5301836;28;20373;-69
2023/04/01 08:20:42;;;;;;;9.48;7.95;;;;;;;;;;5302210;28;20024;-69
2023/04/01 08:23:15;;;;;;;10.10;8.18;;;;;;;;;;5302607;28;20261;-69
2023/04/01 08:25:52;;;;;;;11.68;9.10;;;;;;;;;;5301270;28;20058;-68
2023/04/01 08:28:32;;;;;;;12.52;8.07;;;;;;;;;;5302716;28;20024;-69
2023/04/01 08:31:10;;;;;;;11.13;8.43;;;;;;;;;;5301422;28;20437;-70
2023/04/01 08:33:43;;;;;;;16.13;10.05;;;;;;;;;;5301863;28;20447;-69
2023/04/01 08:36:16;;;;;;;12.35;9.60;;;;;;;;;;5302718;28;20023;-69
2023/04/01 08:38:54;;;;;;;12.68;8.80;;;;;;;;;;5301341;28;20107;-69
2023/04/01 08:41:35;;;;;;;12.52;9.30;;;;;;;;;;5302424;28;20063;-69
2023/04/01 08:44:25;;;;;;;10.23;8.68;;;;;;;;;;5301746;28;20042;-69
2023/04/01 08:46:56;;;;;;;11.70;7.60;;;;;;;;;;5300824;28;20439;-69
2023/04/01 08:49:47;;;;;;;10.55;8.45;;;;;;;;;;5302388;28;20099;-69
2023/04/01 08:52:31;;;;;;;10.57;7.53;;;;;;;;;;5269729;28;20301;-68
2023/04/01 08:55:18;;;;;;;11.32;7.85;;;;;;;;;;5302228;28;20086;-69
2023/04/01 08:58:01;;;;;;;12.95;7.10;;;;;;;;;;5301827;28;20196;-70
2023/04/01 09:00:37;;;;;;;7.97;6.70;;;;;;;;;;5302633;28;20110;-70
2023/04/01 09:03:16;;;;;;;9.95;7.15;;;;;;;;;;5306295;28;20425;-70
2023/04/01 09:05:47;;;;;;;;;;;;;;;;;;5305496;28;20016;-70
2023/04/01 09:08:25;;;;;;;7.60;5.70;;;;;;;;;;5306090;28;19915;-70
2023/04/01 09:11:05;;;;;;;6.88;5.55;;;;;;;;;;5305486;28;20519;-70
2023/04/01 09:13:42;;;;;;;7.28;5.82;;;;;;;;;;5305105;28;20036;-70
2023/04/01 09:16:28;;;;;;;7.05;4.57;;;;;;;;;;5305788;28;20035;-70
2023/04/01 09:19:18;;;;;;;4.78;4.28;;;;;;;;;;5305245;28;20043;-70
2023/04/01 09:22:07;;;;;;;5.03;3.78;;;;;;;;;;5304669;28;20249;-70
2023/04/01 09:25:02;;;;;;;4.55;4.07;;;;;;;;;;5305353;28;20502;-70
2023/04/01 09:27:33;;;;;;;6.43;4.68;;;;;;;;;;5304712;28;20348;-70
2023/04/01 09:30:07;;;;;;;4.95;4.43;;;;;;;;;;5305262;28;20137;-70
2023/04/01 09:32:44;;;;;;;5.53;4.72;;;;;;;;;;5304926;28;20296;-70
2023/04/01 09:35:23;;;;;;;4.47;4.03;;;;;;;;;;5304865;28;20107;-70
2023/04/01 09:38:03;;;;;;;5.75;4.03;;;;;;;;;;5304917;28;20027;-69
2023/04/01 09:40:46;;;;;;;4.25;3.42;;;;;;;;;;5305131;28;20031;-69
2023/04/01 09:43:28;;;;;;;3.42;3.03;;;;;;;;;;5304623;28;20027;-69
2023/04/01 09:46:08;;;;;;;3.22;2.92;;;;;;;;;;5304769;28;20032;-69
2023/04/01 09:48:39;;;;;;;2.95;2.70;;;;;;;;;;5303762;28;20028;-70
2023/04/01 09:51:29;;;;;;;4.50;3.17;;;;;;;;;;5305099;28;20020;-69
2023/04/01 09:54:03;;;;;;;4.28;3.03;;;;;;;;;;5304438;28;20084;-69
2023/04/01 09:56:51;;;;;;;3.13;2.85;;;;;;;;;;5304005;28;20458;-69
2023/04/01 09:59:41;;;;;;;5.03;3.70;;;;;;;;;;5305253;28;20471;-69
2023/04/01 10:02:31;;;;;;;3.63;3.10;;;;;;;;;;5304294;28;20024;-69
2023/04/01 10:05:21;;;;;;;4.00;3.08;;;;;;;;;;5304538;28;20028;-69
2023/04/01 10:07:52;;;;;;;3.53;3.20;;;;;;;;;;5303935;28;20024;-69
2023/04/01 10:10:52;;;;;;;4.22;3.38;;;;;;;;;;5304082;28;20478;-69
2023/04/01 10:13:33;;;;;;;6.57;4.75;;;;;;;;;;5249425;28;20040;-69
2023/04/01 10:16:04;;;;;;;4.53;4.13;;;;;;;;;;5304313;28;20052;-69
2023/04/01 10:18:53;;;;;;;5.25;4.18;;;;;;;;;;5303914;28;20058;-69
2023/04/01 10:21:52;;;;;;;3.80;3.50;;;;;;;;;;5304629;28;20031;-69
2023/04/01 10:24:30;;;;;;;4.53;4.13;;;;;;;;;;5303976;28;20099;-69
2023/04/01 10:27:24;;;;;;;4.38;3.97;;;;;;;;;;5304476;28;20110;-69
2023/04/01 10:30:14;;;;;;;4.10;3.67;;;;;;;;;;5303805;28;20020;-69
2023/04/01 10:33:00;;;;;;;5.80;4.75;;;;;;;;;;5303352;28;20024;-69
2023/04/01 10:35:50;;;;;;;7.50;6.15;;;;;;;;;;5304149;28;20360;-69
2023/04/01 10:38:46;;;;;;;7.35;5.80;;;;;;;;;;5303398;28;20024;-69
2023/04/01 10:41:35;;;;;;;6.40;5.80;;;;;;;;;;5304397;28;20398;-68
2023/04/01 10:44:25;;;;;;;6.63;5.85;;;;;;;;;;5303699;28;20032;-69
2023/04/01 10:47:09;;;;;;;6.90;6.30;;;;;;;;;;5303001;28;20442;-68
2023/04/01 10:49:55;;;;;;;6.82;6.10;;;;;;;;;;5303042;28;20024;-69
2023/04/01 10:52:35;;;;;;;8.68;6.53;;;;;;;;;;5302886;28;20063;-69
2023/04/01 10:55:12;;;;;;;6.75;6.03;;;;;;;;;;5303148;28;20494;-68
2023/04/01 10:57:52;;;;;;;7.72;5.68;;;;;;;;;;5303640;28;20090;-69
2023/04/01 11:00:32;;;;;;;7.57;6.72;;;;;;;;;;5303163;28;20102;-68
2023/04/01 11:03:04;;;;;;;9.60;7.20;;;;;;;;;;5303546;28;20032;-69
2023/04/01 11:05:35;;;;;;;8.95;6.63;;;;;;;;;;5302668;28;20035;-69
2023/04/01 11:08:24;;;;;;;8.75;7.20;;;;;;;;;;5303462;28;20052;-69
2023/04/01 11:10:58;;;;;;;8.23;6.25;;;;;;;;;;5303355;28;20525;-69
2023/04/01 11:13:42;;;;;;;8.45;7.07;;;;;;;;;;5302435;28;20028;-69
2023/04/01 11:16:33;;;;;;;6.90;6.20;;;;;;;;;;5303571;28;20020;-69
2023/04/01 11:19:16;;;;;;;7.03;6.32;;;;;;;;;;5302917;28;20020;-69
2023/04/01 11:22:09;;;;;;;6.40;5.80;;;;;;;;;;5301821;28;20116;-68
2023/04/01 11:24:55;;;;;;;7.90;7.10;;;;;;;;;;5302445;28;20020;-69
2023/04/01 11:27:38;;;;;;;7.25;6.40;;;;;;;;;;5302580;28;20078;-69
2023/04/01 11:30:15;;;;;;;8.45;6.25;;;;;;;;;;5303388;28;20027;-69
2023/04/01 11:32:54;;;;;;;6.28;5.05;;;;;;;;;;5302407;28;20051;-69
2023/04/01 11:35:44;;;;;;;7.03;6.32;;;;;;;;;;5302470;28;20462;-69
2023/04/01 11:38:33;;;;;;;6.10;5.28;;;;;;;;;;5302885;28;20047;-69
2023/04/01 11:41:23;;;;;;;6.32;5.72;;;;;;;;;;5301679;28;20471;-69
2023/04/01 11:44:07;;;;;;;6.18;5.57;;;;;;;;;;5301995;28;20024;-69
2023/04/01 11:46:44;;;;;;;6.97;6.28;;;;;;;;;;5302473;28;20020;-68
2023/04/01 11:49:21;;;;;;;6.22;5.57;;;;;;;;;;5302106;28;20050;-69
2023/04/01 11:52:10;;;;;;;6.20;5.60;;;;;;;;;;5302513;28;20111;-69
2023/04/01 11:54:54;;;;;;;5.95;5.45;;;;;;;;;;5301325;28;20034;-71
2023/04/01 11:57:44;;;;;;;5.05;4.53;;;;;;;;;;5302972;28;20477;-70
2023/04/01 12:00:30;;;;;;;4.82;4.43;;;;;;;;;;5302629;28;20032;-70
2023/04/01 12:03:13;;;;;;;5.05;4.55;;;;;;;;;;5301735;28;20024;-69
2023/04/01 12:05:47;;;;;;;4.15;3.85;;;;;;;;;;5299985;28;20539;-69
2023/04/01 12:08:21;;;;;;;4.03;3.65;;;;;;;;;;5300558;28;20099;-70
2023/04/01 12:10:59;;;;;;;4.10;3.70;;;;;;;;;;5299330;28;20077;-69
2023/04/01 12:13:50;;;;;;;4.13;3.60;;;;;;;;;;5300172;28;20036;-69
2023/04/01 12:16:40;;;;;;;5.45;4.50;;;;;;;;;;5299142;28;20028;-69
2023/04/01 12:19:23;;;;;;;3.92;3.45;;;;;;;;;;5301619;28;20021;-69
2023/04/01 12:22:00;;;;;;;3.90;3.50;;;;;;;;;;5302231;28;20032;-69
2023/04/01 12:24:49;;;;;;;3.70;3.25;;;;;;;;;;5301373;28;20028;-69
2023/04/01 12:27:29;;;;;;;5.00;2.95;;;;;;;;;;5302815;28;20087;-69
2023/04/01 12:30:12;;;;;;;2.67;2.47;;;;;;;;;;5301773;28;20020;-70
2023/04/01 12:32:46;;;;;;;3.30;3.00;;;;;;;;;;5302028;28;20040;-70
2023/04/01 12:35:18;;;;;;;3.78;2.47;;;;;;;;;;5303319;28;20093;-70
2023/04/01 12:37:52;;;;;;;3.22;2.92;;;;;;;;;;5305609;28;20028;-69
2023/04/01 12:40:38;;;;;;;4.75;2.97;;;;;;;;;;5306574;28;20028;-69
2023/04/01 12:43:15;;;;;;;3.70;2.72;;;;;;;;;;5306523;28;20036;-69
2023/04/01 12:45:46;;;;;;;3.67;3.33;;;;;;;;;;5304897;28;20040;-70
2023/04/01 12:48:36;;;;;;;3.55;3.17;;;;;;;;;;5306423;28;20020;-70
2023/04/01 12:51:08;;;;;;;3.72;3.38;;;;;;;;;;5305135;28;20266;-70
2023/04/01 12:53:58;;;;;;;4.28;3.22;;;;;;;;;;5305025;28;20513;-67
2023/04/01 12:56:29;;;;;;;3.95;3.55;;;;;;;;;;5305927;28;20294;-69
2023/04/01 12:59:26;;;;;;;5.82;4.65;;;;;;;;;;5303300;28;20601;-69
2023/04/01 13:01:57;;;;;;;6.15;4.70;;;;;;;;;;5279386;28;20032;-68
2023/04/01 13:04:34;;;;;;;5.70;5.05;;;;;;;;;;5303835;28;20093;-68
2023/04/01 13:07:11;;;;;;;4.50;4.10;;;;;;;;;;5298490;28;20354;-68
2023/04/01 13:10:01;;;;;;;6.65;4.78;;;;;;;;;;5303071;28;20103;-68
2023/04/01 13:12:40;;;;;;;5.00;4.45;;;;;;;;;;5302620;28;20024;-69
2023/04/01 13:15:16;;;;;;;6.53;4.68;;;;;;;;;;5303787;28;20035;-69
2023/04/01 13:17:50;;;;;;;5.43;3.75;;;;;;;;;;5302743;28;20016;-69
2023/04/01 13:20:51;;;;;;;5.70;4.40;;;;;;;;;;5304717;28;20103;-68
2023/04/01 13:23:31;;;;;;;4.07;3.67;;;;;;;;;;5247592;28;20024;-68
2023/04/01 13:26:17;;;;;;;4.97;3.70;;;;;;;;;;5302204;28;20041;-68
2023/04/01 13:29:17;;;;;;;4.38;3.72;;;;;;;;;;5303153;28;20032;-68
2023/04/01 13:32:07;;;;;;;5.07;4.10;;;;;;;;;;5291727;28;20418;-69
2023/04/01 13:34:44;;;;;;;5.35;4.30;;;;;;;;;;5304018;28;20044;-69
2023/04/01 13:37:23;;;;;;;5.32;3.55;;;;;;;;;;5304937;28;20024;-69
2023/04/01 13:39:54;;;;;;;;;;;;;;;;;;5303014;28;20024;-69
2023/04/01 13:42:31;;;;;;;3.63;3.33;;;;;;;;;;5304821;28;20308;-69
2023/04/01 13:45:10;;;;;;;4.10;3.47;;;;;;;;;;5305205;28;20027;-69
2023/04/01 13:47:41;;;;;;;5.03;3.97;;;;;;;;;;5303822;28;20028;-70
2023/04/01 13:50:32;;;;;;;3.65;3.30;;;;;;;;;;5305197;28;20016;-70
2023/04/01 13:53:06;;;;;;;3.58;3.20;;;;;;;;;;5304729;28;20312;-69
2023/04/01 13:55:53;;;;;;;3.45;3.15;;;;;;;;;;5304288;28;20379;-70
2023/04/01 13:58:27;;;;;;;4.05;3.33;;;;;;;;;;5305167;28;20035;-69
2023/04/01 14:01:14;;;;;;;3.13;2.67;;;;;;;;;;5304751;28;20390;-69
2023/04/01 14:04:09;;;;;;;6.00;2.90;;;;;;;;;;5304620;28;20031;-69
2023/04/01 14:06:43;;;;;;;3.97;2.63;;;;;;;;;;5303948;28;20359;-69
2023/04/01 14:09:26;;;;;;;4.88;2.65;;;;;;;;;;5302846;28;20053;-69
2023/04/01 14:11:57;;;;;;;3.35;2.15;;;;;;;;;;5301819;28;20032;-69
2023/04/01 14:14:41;;;;;;;3.22;2.45;;;;;;;;;;5302552;28;20077;-69
2023/04/01 14:17:31;;;;;;;5.30;2.20;;;;;;;;;;5301784;28;20603;-69
2023/04/01 14:20:02;;;;;;;3.55;2.15;;;;;;;;;;5302055;28;20028;-69
2023/04/01 14:22:36;;;;;;;2.50;2.30;;;;;;;;;;5301362;28;20030;-70
2023/04/01 14:25:26;;;;;;;2.05;1.80;;;;;;;;;;5302127;28;20028;-69
2023/04/01 14:28:09;;;;;;;2.17;1.63;;;;;;;;;;5302622;28;20044;-69
2023/04/01 14:30:52;;;;;;;1.98;1.70;;;;;;;;;;5300943;28;20016;-69
2023/04/01 14:33:26;;;;;;;1.83;1.52;;;;;;;;;;5302018;28;20055;-69
2023/04/01 14:36:06;;;;;;;2.67;2.30;;;;;;;;;;5301752;28;20382;-69
2023/04/01 14:38:51;;;;;;;3.05;2.47;;;;;;;;;;5302189;28;20510;-70
2023/04/01 14:41:41;;;;;;;3.35;2.40;;;;;;;;;;5303505;28;20062;-70
2023/04/01 14:44:27;;;;;;;2.42;2.20;;;;;;;;;;5303132;28;20059;-70
2023/04/01 14:47:17;;;;;;;2.83;2.15;;;;;;;;;;5303640;28;20451;-69
2023/04/01 14:49:50;;;;;;;3.38;2.55;;;;;;;;;;5303489;28;20028;-69
2023/04/01 14:52:26;;;;;;;2.72;2.03;;;;;;;;;;5303034;28;20059;-69
2023/04/01 14:54:58;;;;;;;2.40;2.00;;;;;;;;;;5303212;28;20028;-69
2023/04/01 14:57:30;;;;;;;3.25;2.85;;;;;;;;;;5302606;28;20020;-70
2023/04/01 15:00:02;;;;;;;3.97;3.58;;;;;;;;;;5303618;28;20454;-69
2023/04/01 15:02:42;;;;;;;4.32;3.97;;;;;;;;;;5303471;28;20077;-68
2023/04/01 15:05:33;;;;;;;3.58;3.00;;;;;;;;;;5302976;28;20112;-68
2023/04/01 15:08:10;;;;;;;3.55;3.20;;;;;;;;;;5303250;28;20028;-68
2023/04/01 15:10:41;;;;;;;4.40;4.00;;;;;;;;;;5303131;28;20055;-68
2023/04/01 15:13:31;;;;;;;4.75;3.67;;;;;;;;;;5302775;28;20116;-67
2023/04/01 15:16:11;;;;;;;3.88;3.47;;;;;;;;;;5303286;28;20024;-68
2023/04/01 15:19:00;;;;;;;4.13;3.83;;;;;;;;;;5302253;28;20028;-68
2023/04/01 15:21:38;;;;;;;4.38;3.75;;;;;;;;;;5303009;28;20559;-68
2023/04/01 15:24:19;;;;;;;4.50;3.95;;;;;;;;;;5303586;28;20524;-68
2023/04/01 15:27:12;;;;;;;4.35;3.95;;;;;;;;;;5302355;28;20028;-68
2023/04/01 15:30:12;;;;;;;4.85;4.35;;;;;;;;;;5302801;28;20020;-69
2023/04/01 15:32:47;;;;;;;4.63;4.07;;;;;;;;;;5302055;28;20065;-68
2023/04/01 15:35:18;;;;;;;4.07;3.67;;;;;;;;;;5303180;28;20024;-69
2023/04/01 15:37:49;;;;;;;7.47;4.80;;;;;;;;;;5302583;28;20376;-69
2023/04/01 15:40:30;;;;;;;4.38;3.97;;;;;;;;;;5302639;28;20278;-68
2023/04/01 15:43:21;;;;;;;4.53;3.95;;;;;;;;;;5303035;28;20149;-68
2023/04/01 15:45:56;;;;;;;4.50;4.10;;;;;;;;;;5302467;28;20020;-69